Amunt
Inicio > meteoXarxa
Fes-te'n soci

METEOXARXA

la Jana
Ubicació
Comarca el Baix Maestrat
Altitud (msnm) 305
Posició geogràfica 40° 30' 42.84" N, 00° 15' 0.36" E
Model Davis Vantage Vue
Presa de dades
Font de les dades Fco. Javier Pau Tomás
Estadístiques. Resum
Data Temperatura (ºC) Humitat (%) Pressió (hPa) Vent (km/h) Precipit. (mm)
Mínima Mitjana Màxima Mínima Mitjana Màxima Mínima Mitjana Màxima Predom. Mitjana Ràfega màxima Total Dies de pluja
Mínima Mitjana Màxima Mínima Mitjana Màxima
Últimes dades diàries
13-05-2016 10,1     13,3     16,6 59,0 73,5 88,0 1.007,0 1.008,0 1.009,0 35,0 0,0  
12-05-2016 9,8     15,1     20,4 47,0 67,0 87,0 1.005,0 1.006,5 1.008,0 24,0 2,0  
11-05-2016 10,1     14,8     19,5 56,0 71,5 87,0 1.005,0 1.007,5 1.010,0 31,0 1,0  
10-05-2016 7,4     12,1     16,8 65,0 76,0 87,0 1.007,0 1.009,5 1.012,0 24,0 7,0  
09-05-2016 10,3     14,2     18,0 72,0 79,5 87,0 1.006,0 1.008,5 1.011,0 35,0 26,4  
05-05-2016 10,2     11,5     12,8 78,0 81,0 84,0 1.019,0 1.019,0 1.019,0 8,0 0,0  
04-05-2016 8,6     16,0     23,4 38,0 62,5 87,0 1.018,0 1.020,5 1.023,0 27,0 0,0  
03-05-2016 7,3     15,1     22,8 23,0 50,0 77,0 1.020,0 1.021,5 1.023,0 24,0 0,0  
02-05-2016 7,8     15,3     22,9 23,0 46,5 70,0 1.019,0 1.022,0 1.025,0 42,0 0,0  
01-05-2016 8,0     12,3     16,7 24,0 41,0 58,0 1.021,0 1.023,0 1.025,0 87,0 0,0  
30-04-2016 10,5     13,9     17,4 31,0 59,5 88,0 1.016,0 1.020,0 1.024,0 69,0 1,4  
29-04-2016 5,9     11,2     16,6 53,0 71,0 89,0 1.019,0 1.020,0 1.021,0 23,0 0,0  
27-04-2016 8,7     13,7     18,6 53,0 68,5 84,0 1.012,0 1.012,5 1.013,0 26,0 0,0  
26-04-2016 7,1     13,6     20,1 39,0 62,0 85,0 1.011,0 1.013,5 1.016,0 23,0 0,0  
25-04-2016 7,4     12,7     17,9 35,0 56,5 78,0 1.015,0 1.017,0 1.019,0 52,0 0,0  
24-04-2016 11,9     15,4     19,0 35,0 49,5 64,0 1.013,0 1.014,5 1.016,0 63,0 0,0  
23-04-2016 9,4     14,8     20,3 44,0 64,5 85,0 1.012,0 1.015,5 1.019,0 34,0 0,2  
22-04-2016 10,2     13,9     17,7 37,0 61,0 85,0 1.018,0 1.020,0 1.022,0 18,0 6,4  
21-04-2016 11,7     15,1     18,4 31,0 58,0 85,0 1.019,0 1.020,5 1.022,0 24,0 3,0  
20-04-2016 9,3     12,2     15,0 38,0 61,5 85,0 1.017,0 1.018,0 1.019,0 26,0 0,8  
19-04-2016 9,4     13,2     17,0 60,0 73,0 86,0 1.018,0 1.020,5 1.023,0 19,0 0,0  
18-04-2016 10,4     13,9     17,4 62,0 74,0 86,0 1.017,0 1.019,5 1.022,0 27,0 0,0  
17-04-2016 11,9     16,9     21,8 40,0 62,5 85,0 1.011,0 1.014,0 1.017,0 29,0 0,0  
16-04-2016 8,8     15,9     23,0 44,0 65,0 86,0 1.007,0 1.009,5 1.012,0 31,0 0,0  
15-04-2016 8,1     14,3     20,6 60,0 73,0 86,0 1.009,0 1.011,5 1.014,0 24,0 0,0  
14-04-2016 7,6     15,2     22,9 33,0 53,0 73,0 1.012,0 1.014,0 1.016,0 26,0 0,0  
13-04-2016 8,6     15,2     21,9 27,0 55,0 83,0 1.010,0 1.013,0 1.016,0 31,0 0,0  
12-04-2016 8,2     13,9     19,7 40,0 63,0 86,0 1.010,0 1.011,5 1.013,0 26,0 0,0  
11-04-2016 7,8     14,2     20,5 33,0 59,0 85,0 1.007,0 1.010,0 1.013,0 27,0 0,0  
10-04-2016 6,7     13,2     19,7 48,0 66,0 84,0 1.006,0 1.008,5 1.011,0 27,0 0,0  
09-04-2016 8,6     13,9     19,3 37,0 56,0 75,0 1.010,0 1.012,0 1.014,0 58,0 0,0  
08-04-2016 7,6     11,3     15,1 36,0 48,0 60,0 1.011,0 1.013,0 1.015,0 60,0 0,0  
Dades del mes en curs (actualitzades fins l'últim dia disponible)
05/2016 7,3 9,0 10,3 14,0 12,8 19,0 23,4 23,0 64,9 88,0 1.005,0 1.014,6 1.025,0   87,0 36,4  
Últimes dades mensuals
12/2016
11/2016
10/2016
09/2016
08/2016
07/2016
06/2016
05/2016 7,3 9,0 10,3 14,0 12,8 19,0 23,4 41,0 64,8 81,0 1.006,5 1.014,6 1.023,0 87,0 36,4 4
04/2016 4,4 8,7 11,9 13,6 12,7 18,5 23,0 42,0 59,9 74,0 1.007,5 1.014,2 1.020,5 69,0 46,6 8
03/2016 1,5 6,3 8,8 10,7 7,4 15,1 22,4 36,5 54,3 72,0 1.006,5 1.015,8 1.022,0 106,0 36,8 8
02/2016 -2,1 4,6 8,3 9,0 8,7 13,5 18,2 43,5 56,9 68,0 993,0 1.013,8 1.032,0 101,0 19,6 4
01/2016 3,7 6,7 9,3 10,7 6,8 14,8 21,9 39,5 52,8 67,0 1.006,0 1.016,1 1.028,5 82,0 5,2 4
12/2015 1,9 5,4 9,2 10,6 8,8 15,9 19,2 32,0 43,4 61,0 1.024,0 1.030,5 1.035,5 19,0 1,6 8
Dades de l'any en curs (actualitzades fins l'últim dia disponible)
2016 -2,1 7,1 11,9 11,7 6,8 16,3 23,4 1,0 57,2 89,0 989,0 1.015,0 1.034,0   106,0 144,6  
Últimes dades anuals
2011 -4,7 11,0 21,7 16,0 5,7 21,0 33,9 41,5 70,5 97,5 129,0 636,6 90
2012 -2,1 9,5 13,1 14,6 19,1 19,7 34,9 49,7 66,5 75,7 1.015,4 1.018,2 1.020,9 113,0 568,4 60
2013 -2,8 10,4 14,2 15,4 19,6 20,4 33,2 58,9 66,9 73,5 1.007,3 1.017,1 1.025,3 121,0 635,0 78
2014 -0,9 11,4 22,7 16,3 8,9 21,2 33,6 21,0 69,1 96,5 995,5 1.016,2 1.033,5 103,0 648,4 102
2015 -1,8 10,9 17,7 16,0 19,2 21,1 36,2 43,4 57,9 71,2 1.015,2 1.019,9 1.030,5 113,0 603,6 87